Time;durP1;ratioP1;P1;durP2;ratioP2;P2;SDS_P1;SDS_P2;PMS_P1;PMS_P2;Temp;Humidity;BMP_temperature;BMP_pressure;BME280_temperature;BME280_humidity;BME280_pressure;Samples;Min_cycle;Max_cycle;Signal;HPM_P1;HPM_P2
2023/05/25 00:02:08;;;;;;;17.50;6.68;;;10.40;99.90;;;;;;5073401;28;20730;-82
2023/05/25 00:04:35;;;;;;;18.23;6.80;;;10.50;99.90;;;;;;5088559;28;20217;-82
2023/05/25 00:07:02;;;;;;;22.10;6.80;;;10.40;99.90;;;;;;5074513;28;20185;-82
2023/05/25 00:09:28;;;;;;;17.70;6.57;;;10.40;99.90;;;;;;5076148;28;20244;-82
2023/05/25 00:11:54;;;;;;;14.60;7.03;;;10.30;99.90;;;;;;5076550;28;20665;-82
2023/05/25 00:14:20;;;;;;;14.00;6.32;;;10.30;99.90;;;;;;5076877;28;20199;-82
2023/05/25 00:16:47;;;;;;;13.38;6.00;;;10.30;99.90;;;;;;5076929;28;20169;-82
2023/05/25 00:19:14;;;;;;;16.00;6.35;;;10.20;99.90;;;;;;5076963;28;20163;-83
2023/05/25 00:21:41;;;;;;;18.33;7.30;;;10.10;99.90;;;;;;5076851;28;20634;-83
2023/05/25 00:24:07;;;;;;;15.23;6.53;;;10.10;99.90;;;;;;5092150;28;20232;-82
2023/05/25 00:26:34;;;;;;;18.35;7.20;;;10.10;99.90;;;;;;5076398;28;20232;-82
2023/05/25 00:29:00;;;;;;;17.80;7.10;;;10.00;99.90;;;;;;5076662;28;20193;-82
2023/05/25 00:31:26;;;;;;;15.98;6.68;;;10.00;99.90;;;;;;5076694;28;20219;-82
2023/05/25 00:33:52;;;;;;;15.20;6.43;;;9.90;99.90;;;;;;5076710;28;20170;-83
2023/05/25 00:36:18;;;;;;;18.55;7.22;;;9.90;99.90;;;;;;5092339;28;20272;-82
2023/05/25 00:38:44;;;;;;;16.60;7.47;;;9.90;99.90;;;;;;5076601;28;20181;-82
2023/05/25 00:41:11;;;;;;;16.17;6.75;;;9.90;99.90;;;;;;5076317;28;20181;-82
2023/05/25 00:43:36;;;;;;;14.48;6.70;;;9.90;99.90;;;;;;5091661;28;20209;-83
2023/05/25 00:46:02;;;;;;;19.10;7.18;;;9.90;99.90;;;;;;5092178;28;20182;-82
2023/05/25 00:48:28;;;;;;;16.90;7.47;;;9.90;99.90;;;;;;5076488;28;20651;-82
2023/05/25 00:50:58;;;;;;;19.15;7.22;;;9.90;99.90;;;;;;5091977;28;20612;-82
2023/05/25 00:53:24;;;;;;;20.05;7.47;;;9.80;99.90;;;;;;5091646;28;20680;-82
2023/05/25 00:56:12;;;;;;;17.63;6.72;;;9.80;99.90;;;;;;5076121;28;20185;-82
2023/05/25 00:58:42;;;;;;;16.95;7.25;;;9.70;99.90;;;;;;5076028;28;20204;-82
2023/05/25 01:01:12;;;;;;;11.25;6.65;;;9.70;99.90;;;;;;5076227;28;20158;-82
2023/05/25 01:03:44;;;;;;;16.48;7.32;;;9.70;99.90;;;;;;5076001;28;20204;-82
2023/05/25 01:06:13;;;;;;;20.05;7.93;;;9.60;99.90;;;;;;5091722;28;20177;-82
2023/05/25 01:08:43;;;;;;;15.48;7.32;;;9.60;99.90;;;;;;5076087;28;20173;-82
2023/05/25 01:11:13;;;;;;;14.00;7.47;;;9.60;99.90;;;;;;5076012;28;20184;-83
2023/05/25 01:13:41;;;;;;;13.45;6.90;;;9.60;99.90;;;;;;5075864;28;20193;-82
2023/05/25 01:16:09;;;;;;;13.48;7.40;;;9.50;99.90;;;;;;5075852;28;20181;-82
2023/05/25 01:18:36;;;;;;;18.02;7.45;;;9.50;99.90;;;;;;5075412;28;20620;-81
2023/05/25 01:21:16;;;;;;;13.38;7.30;;;9.50;99.90;;;;;;5075773;28;20177;-82
2023/05/25 01:24:10;;;;;;;27.20;7.38;;;9.50;99.90;;;;;;5091051;28;20716;-82
2023/05/25 01:26:45;;;;;;;15.43;6.95;;;9.50;99.90;;;;;;5091480;28;20735;-83
2023/05/25 01:29:13;;;;;;;16.92;7.88;;;9.40;99.90;;;;;;5091195;28;20268;-83
2023/05/25 01:31:40;;;;;;;13.32;6.85;;;9.50;99.90;;;;;;5091223;28;20181;-83
2023/05/25 01:34:07;;;;;;;15.10;7.55;;;9.50;99.90;;;;;;5091144;28;20174;-82
2023/05/25 01:36:33;;;;;;;11.90;7.25;;;9.40;99.90;;;;;;5091131;28;20288;-83
2023/05/25 01:38:58;;;;;;;15.02;7.30;;;9.40;99.90;;;;;;5075449;28;20624;-82
2023/05/25 01:41:25;;;;;;;17.35;8.95;;;9.40;99.90;;;;;;5091104;28;20189;-82
2023/05/25 01:43:52;;;;;;;15.73;8.82;;;9.30;99.90;;;;;;5090554;28;20213;-82
2023/05/25 01:46:31;;;;;;;16.20;7.72;;;9.40;99.90;;;;;;5075525;28;20169;-82
2023/05/25 01:49:11;;;;;;;18.05;9.02;;;9.40;99.90;;;;;;5090979;28;20199;-81
2023/05/25 01:52:01;;;;;;;12.95;7.72;;;9.30;99.90;;;;;;5074868;28;20219;-82
2023/05/25 01:54:46;;;;;;;15.82;7.97;;;9.30;99.90;;;;;;5090721;28;20176;-82
2023/05/25 01:57:16;;;;;;;15.82;7.40;;;9.30;99.90;;;;;;5074957;28;20561;-82
2023/05/25 01:59:44;;;;;;;11.43;7.13;;;9.30;99.90;;;;;;5075102;28;20256;-83
2023/05/25 02:02:13;;;;;;;19.88;8.07;;;9.20;99.90;;;;;;5074770;28;20166;-82
2023/05/25 02:04:40;;;;;;;15.55;7.82;;;9.10;99.90;;;;;;5074701;28;20679;-82
2023/05/25 02:07:06;;;;;;;13.65;6.95;;;9.10;99.90;;;;;;5074914;28;20314;-82
2023/05/25 02:09:32;;;;;;;12.80;7.07;;;9.10;99.90;;;;;;5090391;28;20182;-82
2023/05/25 02:11:57;;;;;;;13.27;7.60;;;9.00;99.90;;;;;;5074584;28;20177;-82
2023/05/25 02:14:23;;;;;;;11.88;7.45;;;9.00;99.90;;;;;;5074631;28;20166;-82
2023/05/25 02:16:49;;;;;;;14.05;7.85;;;8.90;99.90;;;;;;5074565;28;20558;-82
2023/05/25 02:19:15;;;;;;;14.35;7.47;;;9.00;99.90;;;;;;5074522;28;20174;-82
2023/05/25 02:21:41;;;;;;;15.55;7.47;;;8.90;99.90;;;;;;5090186;28;20625;-82
2023/05/25 02:24:10;;;;;;;18.80;7.78;;;8.90;99.90;;;;;;5074445;28;20236;-82
2023/05/25 02:26:37;;;;;;;14.80;7.60;;;8.80;99.90;;;;;;5074043;28;20181;-82
2023/05/25 02:29:04;;;;;;;15.10;7.77;;;8.80;99.90;;;;;;5088966;28;20285;-82
2023/05/25 02:31:30;;;;;;;17.38;8.07;;;8.80;99.90;;;;;;5074169;28;20215;-82
2023/05/25 02:33:56;;;;;;;19.75;8.63;;;8.70;99.90;;;;;;5090217;28;20181;-82
2023/05/25 02:36:22;;;;;;;15.13;8.43;;;8.80;99.90;;;;;;5074402;28;20188;-82
2023/05/25 02:38:48;;;;;;;19.13;9.23;;;8.80;99.90;;;;;;5560591;22;20200;-82
2023/05/25 02:41:22;;;;;;;15.38;8.00;;;8.80;99.90;;;;;;5048426;28;20202;-82
2023/05/25 02:43:49;;;;;;;14.38;7.80;;;8.80;99.90;;;;;;5032603;28;20224;-81
2023/05/25 02:46:14;;;;;;;14.63;8.63;;;8.80;99.90;;;;;;5034136;28;20167;-82
2023/05/25 02:48:42;;;;;;;15.63;8.35;;;8.80;99.90;;;;;;5034231;28;20186;-82
2023/05/25 02:51:07;;;;;;;32.60;8.48;;;8.80;99.90;;;;;;5034016;28;20170;-82
2023/05/25 02:53:33;;;;;;;17.95;9.77;;;8.80;99.90;;;;;;5034031;28;20162;-82
2023/05/25 02:56:01;;;;;;;17.10;8.43;;;8.70;99.90;;;;;;5033968;28;20166;-82
2023/05/25 02:58:27;;;;;;;21.02;9.40;;;8.70;99.90;;;;;;5032690;28;20202;-82
2023/05/25 03:00:53;;;;;;;21.30;9.35;;;8.60;99.90;;;;;;5033580;28;20166;-82
2023/05/25 03:03:19;;;;;;;17.52;9.35;;;8.60;99.90;;;;;;5033865;28;20167;-82
2023/05/25 03:05:46;;;;;;;21.05;9.18;;;8.60;99.90;;;;;;5032779;28;20189;-83
2023/05/25 03:08:11;;;;;;;19.70;9.50;;;8.50;99.90;;;;;;5032566;28;20170;-83
2023/05/25 03:10:37;;;;;;;19.23;9.35;;;8.60;99.90;;;;;;5031883;28;20624;-82
2023/05/25 03:13:03;;;;;;;17.73;9.43;;;8.60;99.90;;;;;;5033644;28;20174;-82
2023/05/25 03:15:28;;;;;;;17.45;9.20;;;8.60;99.90;;;;;;5047343;28;20182;-82
2023/05/25 03:17:59;;;;;;;16.67;9.82;;;8.50;99.90;;;;;;5052550;28;20616;-82
2023/05/25 03:20:26;;;;;;;17.73;9.68;;;8.50;99.90;;;;;;5053767;28;20641;-82
2023/05/25 03:22:52;;;;;;;20.05;10.25;;;8.50;99.90;;;;;;5053603;28;20173;-82
2023/05/25 03:25:17;;;;;;;22.00;10.63;;;8.40;99.90;;;;;;5052589;28;20212;-82
2023/05/25 03:27:43;;;;;;;15.27;9.50;;;8.50;99.90;;;;;;5053483;28;20241;-82
2023/05/25 03:30:09;;;;;;;16.55;9.75;;;8.50;99.90;;;;;;5053479;28;20173;-82
2023/05/25 03:32:35;;;;;;;22.95;11.88;;;8.50;99.90;;;;;;5053565;28;20178;-83
2023/05/25 03:35:04;;;;;;;19.58;10.43;;;8.60;99.90;;;;;;5053691;28;20177;-82
2023/05/25 03:37:30;;;;;;;21.67;11.73;;;8.60;99.90;;;;;;5052325;28;20178;-82
2023/05/25 03:39:55;;;;;;;21.63;10.90;;;8.60;99.90;;;;;;5053755;28;20316;-82
2023/05/25 03:42:21;;;;;;;19.63;10.68;;;8.60;99.90;;;;;;5056178;28;20284;-82
2023/05/25 03:44:47;;;;;;;20.80;10.30;;;8.50;99.90;;;;;;5057447;28;20288;-82
2023/05/25 03:47:13;;;;;;;24.58;11.40;;;8.50;99.90;;;;;;5057715;28;20170;-82
2023/05/25 03:49:38;;;;;;;21.80;11.77;;;8.50;99.90;;;;;;5056976;28;20184;-82
2023/05/25 03:52:05;;;;;;;20.00;11.35;;;8.50;99.90;;;;;;5056115;28;20174;-82
2023/05/25 03:54:31;;;;;;;19.98;11.38;;;8.50;99.90;;;;;;5057056;28;20194;-82
2023/05/25 03:56:58;;;;;;;19.08;11.52;;;8.50;99.90;;;;;;5055952;28;20170;-82
2023/05/25 03:59:24;;;;;;;18.27;11.48;;;8.60;99.90;;;;;;5056028;28;20674;-83
2023/05/25 04:01:51;;;;;;;17.67;11.90;;;8.50;99.90;;;;;;5055766;28;20898;-83
2023/05/25 04:04:16;;;;;;;38.23;11.73;;;8.50;99.90;;;;;;5057163;28;20204;-83
2023/05/25 04:06:44;;;;;;;14.75;10.35;;;8.50;99.90;;;;;;5056966;28;20166;-84
2023/05/25 04:09:11;;;;;;;16.02;9.93;;;8.50;99.90;;;;;;5055995;28;20967;-83
2023/05/25 04:11:36;;;;;;;17.38;10.88;;;8.40;99.90;;;;;;5056721;28;20170;-82
2023/05/25 04:14:02;;;;;;;18.80;12.33;;;8.40;99.90;;;;;;5057110;28;20169;-83
2023/05/25 04:16:28;;;;;;;15.80;11.67;;;8.40;99.90;;;;;;5055789;28;20188;-82
2023/05/25 04:18:55;;;;;;;26.38;12.88;;;8.40;99.90;;;;;;5055696;28;20178;-82
2023/05/25 04:21:21;;;;;;;20.30;12.30;;;8.40;99.90;;;;;;5055617;28;20197;-83
2023/05/25 04:23:46;;;;;;;15.88;12.30;;;8.40;99.90;;;;;;5055413;28;20213;-82
2023/05/25 04:26:14;;;;;;;22.05;12.80;;;8.50;99.90;;;;;;5054339;28;20612;-83
2023/05/25 04:28:40;;;;;;;18.83;12.63;;;8.50;99.90;;;;;;5056765;28;20170;-83
2023/05/25 04:31:06;;;;;;;17.27;11.75;;;8.50;99.90;;;;;;5055491;28;20180;-83
2023/05/25 04:33:33;;;;;;;42.10;11.82;;;8.50;99.90;;;;;;5056716;28;20185;-84
2023/05/25 04:35:59;;;;;;;16.10;11.63;;;8.50;99.90;;;;;;5056797;28;20166;-83
2023/05/25 04:38:25;;;;;;;20.50;12.02;;;8.50;99.90;;;;;;5053051;28;20182;-83
2023/05/25 04:40:55;;;;;;;18.35;11.40;;;8.50;99.90;;;;;;5055905;28;20252;-83
2023/05/25 04:43:20;;;;;;;16.25;10.85;;;8.60;99.90;;;;;;5054976;28;20231;-83
2023/05/25 04:45:46;;;;;;;19.90;11.23;;;8.50;99.90;;;;;;5056502;28;20202;-83
2023/05/25 04:48:13;;;;;;;17.30;11.97;;;8.50;99.90;;;;;;5044006;28;20249;-83
2023/05/25 04:50:39;;;;;;;18.37;12.93;;;8.50;99.90;;;;;;5036022;28;20170;-82
2023/05/25 04:53:05;;;;;;;17.77;13.15;;;8.50;99.90;;;;;;5033971;28;20174;-82
2023/05/25 04:55:31;;;;;;;17.52;13.02;;;8.50;99.90;;;;;;5043003;28;20537;-83
2023/05/25 04:57:58;;;;;;;30.83;13.95;;;8.60;99.90;;;;;;5055706;28;20178;-83
2023/05/25 05:00:24;;;;;;;23.10;13.73;;;8.60;99.90;;;;;;5054905;28;20182;-83
2023/05/25 05:02:50;;;;;;;39.50;14.40;;;8.70;99.90;;;;;;5054919;28;20190;-83
2023/05/25 05:05:16;;;;;;;17.53;14.80;;;8.70;99.90;;;;;;5055833;28;20206;-83
2023/05/25 05:07:42;;;;;;;23.48;14.80;;;8.70;99.90;;;;;;5054635;28;20178;-82
2023/05/25 05:10:08;;;;;;;22.70;15.70;;;8.70;99.90;;;;;;5054329;28;20181;-82
2023/05/25 05:12:34;;;;;;;24.23;15.38;;;8.80;99.90;;;;;;5055992;28;20604;-83
2023/05/25 05:15:00;;;;;;;24.98;16.63;;;8.80;99.90;;;;;;5054795;28;20185;-83
2023/05/25 05:17:26;;;;;;;24.58;17.23;;;8.80;99.90;;;;;;5055906;28;20185;-82
2023/05/25 05:19:52;;;;;;;24.00;16.42;;;8.80;99.90;;;;;;5054743;28;20643;-82
2023/05/25 05:22:18;;;;;;;24.75;17.50;;;8.80;99.90;;;;;;5055570;28;20174;-82
2023/05/25 05:24:44;;;;;;;22.73;15.52;;;8.90;99.90;;;;;;5055001;28;20224;-83
2023/05/25 05:27:13;;;;;;;25.03;16.23;;;8.90;99.90;;;;;;5055435;28;20170;-84
2023/05/25 05:29:39;;;;;;;25.97;15.77;;;9.00;99.90;;;;;;5055734;28;20174;-83
2023/05/25 05:32:06;;;;;;;29.23;15.97;;;9.00;99.90;;;;;;5053290;28;20620;-83
2023/05/25 05:34:32;;;;;;;23.83;16.05;;;9.00;99.90;;;;;;5055658;28;20158;-82
2023/05/25 05:36:59;;;;;;;23.50;17.02;;;9.00;99.90;;;;;;5054030;28;20178;-82
2023/05/25 05:39:25;;;;;;;23.63;15.85;;;9.00;99.90;;;;;;5055194;28;20221;-82
2023/05/25 05:41:51;;;;;;;25.67;15.45;;;9.00;99.90;;;;;;5053427;28;20688;-83
2023/05/25 05:44:17;;;;;;;24.10;15.73;;;9.00;99.90;;;;;;5055378;28;20827;-83
2023/05/25 05:46:43;;;;;;;27.75;15.82;;;9.00;99.90;;;;;;5052961;28;20380;-83
2023/05/25 05:49:09;;;;;;;30.30;17.67;;;9.10;99.90;;;;;;5053966;28;20612;-83
2023/05/25 05:51:34;;;;;;;24.92;15.45;;;9.10;99.90;;;;;;5055083;28;20204;-82
2023/05/25 05:54:00;;;;;;;24.35;16.20;;;9.10;99.90;;;;;;5053857;28;20181;-82
2023/05/25 05:56:26;;;;;;;22.05;14.40;;;9.10;99.90;;;;;;5054036;28;20170;-83
2023/05/25 05:58:53;;;;;;;20.63;14.40;;;9.20;99.90;;;;;;5053886;28;20635;-82
2023/05/25 06:01:19;;;;;;;25.30;15.02;;;9.20;99.90;;;;;;5054798;28;20201;-82
2023/05/25 06:03:44;;;;;;;22.02;14.02;;;9.20;99.90;;;;;;5052484;28;20560;-83
2023/05/25 06:06:11;;;;;;;24.65;15.18;;;9.20;99.90;;;;;;5053544;28;20189;-82
2023/05/25 06:08:37;;;;;;;18.90;14.15;;;9.20;99.90;;;;;;5053647;28;20184;-82
2023/05/25 06:11:02;;;;;;;27.10;14.95;;;9.20;99.90;;;;;;5054899;28;20516;-82
2023/05/25 06:13:28;;;;;;;22.13;15.77;;;9.10;99.90;;;;;;5053493;28;20590;-82
2023/05/25 06:15:54;;;;;;;22.88;14.57;;;9.20;99.90;;;;;;5054760;28;20227;-82
2023/05/25 06:18:19;;;;;;;23.85;14.60;;;9.30;99.90;;;;;;5053104;28;20177;-82
2023/05/25 06:20:45;;;;;;;25.42;14.38;;;9.30;99.90;;;;;;5054473;28;20192;-83
2023/05/25 06:23:12;;;;;;;28.98;14.38;;;9.40;99.90;;;;;;5053111;28;20186;-83
2023/05/25 06:25:39;;;;;;;19.63;13.52;;;9.30;99.90;;;;;;5053433;28;20213;-83
2023/05/25 06:28:05;;;;;;;23.63;15.23;;;9.40;99.90;;;;;;5053385;28;20178;-83
2023/05/25 06:30:30;;;;;;;26.33;15.20;;;9.40;99.90;;;;;;5054505;28;20185;-82
2023/05/25 06:32:56;;;;;;;21.98;15.18;;;9.40;99.90;;;;;;5054023;28;20512;-83
2023/05/25 06:35:22;;;;;;;26.42;14.50;;;9.30;99.90;;;;;;5054287;28;20236;-82
2023/05/25 06:37:48;;;;;;;26.52;13.60;;;9.40;99.90;;;;;;5054468;28;20188;-82
2023/05/25 06:40:15;;;;;;;25.20;14.25;;;9.30;99.90;;;;;;5054168;28;20288;-82
2023/05/25 06:42:42;;;;;;;26.40;15.48;;;9.30;99.90;;;;;;5054304;28;20188;-82
2023/05/25 06:45:08;;;;;;;27.58;15.75;;;9.30;99.90;;;;;;5054323;28;20221;-85
2023/05/25 06:47:34;;;;;;;30.67;16.30;;;9.30;99.90;;;;;;5053746;28;20178;-81
2023/05/25 06:50:00;;;;;;;23.77;15.20;;;9.30;99.90;;;;;;5052408;28;20188;-82
2023/05/25 06:52:29;;;;;;;25.85;16.00;;;9.30;99.90;;;;;;5054058;28;20174;-82
2023/05/25 06:54:55;;;;;;;27.52;15.23;;;9.40;99.90;;;;;;5054190;28;20673;-82
2023/05/25 06:57:22;;;;;;;25.55;14.77;;;9.40;99.90;;;;;;5052789;28;20186;-83
2023/05/25 06:59:48;;;;;;;28.88;16.67;;;9.50;99.90;;;;;;5053988;28;20174;-82
2023/05/25 07:02:14;;;;;;;24.60;14.80;;;9.40;99.90;;;;;;5053466;28;20167;-82
2023/05/25 07:04:40;;;;;;;26.92;15.68;;;9.50;99.90;;;;;;5053711;28;20206;-83
2023/05/25 07:07:05;;;;;;;22.95;15.20;;;9.50;99.90;;;;;;5053998;28;20158;-83
2023/05/25 07:09:31;;;;;;;30.17;16.27;;;9.50;99.90;;;;;;5053787;28;20508;-84
2023/05/25 07:11:57;;;;;;;22.63;15.02;;;9.50;99.90;;;;;;5053845;28;20257;-82
2023/05/25 07:14:23;;;;;;;26.20;14.87;;;9.50;99.90;;;;;;5053564;28;20170;-82
2023/05/25 07:16:49;;;;;;;24.48;15.40;;;9.60;99.90;;;;;;5053315;28;20494;-82
2023/05/25 07:19:14;;;;;;;27.92;15.10;;;9.60;99.90;;;;;;5053548;28;20166;-84
2023/05/25 07:21:40;;;;;;;21.17;15.50;;;9.70;99.90;;;;;;5053753;28;20178;-84
2023/05/25 07:24:06;;;;;;;24.77;15.23;;;9.70;99.90;;;;;;5052259;28;20201;-83
2023/05/25 07:26:33;;;;;;;24.15;15.02;;;9.70;99.90;;;;;;5052573;28;20624;-82
2023/05/25 07:29:00;;;;;;;25.10;15.25;;;9.60;99.90;;;;;;5053581;28;20182;-83
2023/05/25 07:31:25;;;;;;;24.30;15.85;;;9.70;99.90;;;;;;5053121;28;20250;-83
2023/05/25 07:33:54;;;;;;;24.13;15.82;;;9.70;99.90;;;;;;5052184;28;20628;-83
2023/05/25 07:36:19;;;;;;;22.77;14.65;;;9.80;99.90;;;;;;5052432;28;20174;-82
2023/05/25 07:38:46;;;;;;;24.05;15.57;;;9.90;99.90;;;;;;5052168;28;20285;-82
2023/05/25 07:41:12;;;;;;;22.40;15.18;;;9.90;99.90;;;;;;5053537;28;20178;-83
2023/05/25 07:43:39;;;;;;;21.48;14.68;;;9.90;99.90;;;;;;5052098;28;20177;-82
2023/05/25 07:46:05;;;;;;;21.80;14.05;;;9.90;99.90;;;;;;5053406;28;20245;-83
2023/05/25 07:48:31;;;;;;;23.63;14.60;;;9.80;99.90;;;;;;5051776;28;20233;-82
2023/05/25 07:50:56;;;;;;;25.88;15.65;;;9.80;99.90;;;;;;5053019;28;20628;-83
2023/05/25 07:53:22;;;;;;;24.08;15.15;;;9.90;99.90;;;;;;5053267;28;20166;-82
2023/05/25 07:55:48;;;;;;;23.02;14.95;;;9.90;99.90;;;;;;5053477;28;20170;-82
2023/05/25 07:58:14;;;;;;;23.02;14.40;;;10.00;99.90;;;;;;5053290;28;20201;-82
2023/05/25 08:00:40;;;;;;;23.27;14.00;;;10.10;99.90;;;;;;5053184;28;20193;-82
2023/05/25 08:03:06;;;;;;;23.13;15.60;;;10.10;99.90;;;;;;5052979;28;20182;-82
2023/05/25 08:05:31;;;;;;;22.83;14.70;;;10.10;99.90;;;;;;5053227;28;20328;-82
2023/05/25 08:07:57;;;;;;;21.75;14.85;;;10.20;99.90;;;;;;5052223;28;20182;-85
2023/05/25 08:10:30;;;;;;;24.17;15.82;;;10.30;99.90;;;;;;5053297;28;20231;-83
2023/05/25 08:12:56;;;;;;;22.67;14.93;;;10.20;99.90;;;;;;5051948;28;20239;-83
2023/05/25 08:15:21;;;;;;;24.05;15.27;;;10.10;99.90;;;;;;5053161;28;20177;-84
2023/05/25 08:17:49;;;;;;;22.50;14.35;;;10.10;99.90;;;;;;5051740;28;20190;-83
2023/05/25 08:20:16;;;;;;;21.23;15.25;;;10.20;99.90;;;;;;5050854;28;20231;-82
2023/05/25 08:22:45;;;;;;;25.23;15.30;;;10.20;99.90;;;;;;5051749;28;20178;-82
2023/05/25 08:25:10;;;;;;;20.70;14.88;;;10.20;99.90;;;;;;5053110;28;20683;-82
2023/05/25 08:27:36;;;;;;;25.83;16.00;;;10.20;99.90;;;;;;5054811;28;20253;-82
2023/05/25 08:30:04;;;;;;;22.05;14.38;;;10.30;99.90;;;;;;5056661;28;20573;-82
2023/05/25 08:32:30;;;;;;;26.67;16.63;;;10.40;99.90;;;;;;5055426;28;20188;-82
2023/05/25 08:34:56;;;;;;;25.05;16.27;;;10.40;99.90;;;;;;5055320;28;20182;-82
2023/05/25 08:37:23;;;;;;;21.83;14.52;;;10.40;99.90;;;;;;5056833;28;20245;-82
2023/05/25 08:39:49;;;;;;;30.10;15.15;;;10.40;99.90;;;;;;5055143;28;20638;-84
2023/05/25 08:42:15;;;;;;;23.50;14.02;;;10.40;99.90;;;;;;5056420;28;20170;-83
2023/05/25 08:44:41;;;;;;;21.13;13.90;;;10.40;99.90;;;;;;5055068;28;20655;-83
2023/05/25 08:47:10;;;;;;;21.05;14.25;;;10.50;99.90;;;;;;5056630;28;20173;-83
2023/05/25 08:49:40;;;;;;;22.52;15.27;;;10.50;99.90;;;;;;5055702;28;20686;-82
2023/05/25 08:52:13;;;;;;;23.00;15.32;;;10.50;99.90;;;;;;5056374;28;20173;-83
2023/05/25 08:54:42;;;;;;;26.20;16.13;;;10.60;99.90;;;;;;5054963;28;20213;-82
2023/05/25 08:57:19;;;;;;;27.40;14.48;;;10.70;99.90;;;;;;5056262;28;20180;-82
2023/05/25 09:00:02;;;;;;;21.52;14.60;;;10.70;99.90;;;;;;5056311;28;20166;-84
2023/05/25 09:02:52;;;;;;;21.23;13.45;;;10.80;99.90;;;;;;5056213;28;20173;-83
2023/05/25 09:05:18;;;;;;;18.70;12.60;;;10.80;99.90;;;;;;5055719;28;20205;-83
2023/05/25 09:07:45;;;;;;;22.13;13.02;;;10.90;99.90;;;;;;5054951;28;20186;-84
2023/05/25 09:10:11;;;;;;;20.63;11.65;;;11.00;99.90;;;;;;5054754;28;20183;-84
2023/05/25 09:12:37;;;;;;;18.95;12.30;;;11.10;99.90;;;;;;5056037;28;20174;-84
2023/05/25 09:15:04;;;;;;;19.63;11.68;;;11.10;99.90;;;;;;5056031;28;20178;-84
2023/05/25 09:17:30;;;;;;;18.05;11.63;;;11.20;99.90;;;;;;5056026;28;20162;-83
2023/05/25 09:19:56;;;;;;;18.70;11.40;;;11.20;99.90;;;;;;5054209;28;20239;-83
2023/05/25 09:22:21;;;;;;;18.77;10.82;;;11.20;99.90;;;;;;5055796;28;20499;-84
2023/05/25 09:24:48;;;;;;;17.60;10.98;;;11.20;99.90;;;;;;5054611;28;20270;-82
2023/05/25 09:27:18;;;;;;;21.98;10.57;;;11.20;99.90;;;;;;5055814;28;20158;-82
2023/05/25 09:29:47;;;;;;;19.00;11.25;;;11.20;99.90;;;;;;5054453;28;20205;-82
2023/05/25 09:32:13;;;;;;;17.30;10.88;;;11.30;99.90;;;;;;5055489;28;20166;-83
2023/05/25 09:34:39;;;;;;;16.27;10.07;;;11.40;99.90;;;;;;5053857;28;20178;-82
2023/05/25 09:37:12;;;;;;;20.77;10.85;;;11.50;99.90;;;;;;5054363;28;20256;-82
2023/05/25 09:39:40;;;;;;;16.92;9.85;;;11.60;99.90;;;;;;5053916;28;20238;-82
2023/05/25 09:42:06;;;;;;;18.17;10.40;;;11.80;99.90;;;;;;5055461;28;20631;-82
2023/05/25 09:44:32;;;;;;;15.82;10.20;;;11.80;99.90;;;;;;5053981;28;20214;-82
2023/05/25 09:46:58;;;;;;;18.63;10.18;;;11.90;99.90;;;;;;5055283;28;20173;-82
2023/05/25 09:49:24;;;;;;;15.65;10.10;;;12.00;99.90;;;;;;5054773;28;20197;-82
2023/05/25 09:51:50;;;;;;;16.23;9.77;;;12.10;99.90;;;;;;5053727;28;20992;-84
2023/05/25 09:54:16;;;;;;;17.45;9.05;;;12.20;99.90;;;;;;5055180;28;20177;-83
2023/05/25 09:56:43;;;;;;;16.15;9.20;;;12.20;99.90;;;;;;5054100;28;20181;-84
2023/05/25 09:59:08;;;;;;;17.80;9.38;;;12.30;99.90;;;;;;5055201;28;20173;-84
2023/05/25 10:01:35;;;;;;;16.85;9.80;;;12.30;99.90;;;;;;5054888;28;20177;-84
2023/05/25 10:04:01;;;;;;;19.65;8.95;;;12.40;99.90;;;;;;5053731;28;20646;-83
2023/05/25 10:06:27;;;;;;;19.63;9.27;;;12.40;99.90;;;;;;5054887;28;20261;-85
2023/05/25 10:08:56;;;;;;;15.88;9.02;;;12.50;99.90;;;;;;5053844;28;20600;-83
2023/05/25 10:11:25;;;;;;;16.73;8.57;;;12.60;99.90;;;;;;5053642;28;20182;-84
2023/05/25 10:13:53;;;;;;;17.40;9.35;;;12.70;99.90;;;;;;5054926;28;20261;-84
2023/05/25 10:16:24;;;;;;;15.45;8.75;;;12.90;99.90;;;;;;5054722;28;20205;-84
2023/05/25 10:18:56;;;;;;;16.13;9.13;;;13.00;99.90;;;;;;5054925;28;20186;-83
2023/05/25 10:21:24;;;;;;;17.05;8.27;;;13.00;99.90;;;;;;5053515;28;20181;-83
2023/05/25 10:23:53;;;;;;;14.93;8.35;;;13.00;99.90;;;;;;5054631;28;20506;-84
2023/05/25 10:26:22;;;;;;;13.00;7.90;;;13.00;99.90;;;;;;5053440;28;20620;-83
2023/05/25 10:29:00;;;;;;;15.25;7.80;;;13.10;99.90;;;;;;5053726;28;20182;-83
2023/05/25 10:31:28;;;;;;;12.48;7.70;;;13.10;99.90;;;;;;5053320;28;20558;-85
2023/05/25 10:33:55;;;;;;;16.42;7.93;;;13.30;99.90;;;;;;5054541;28;20502;-84
2023/05/25 10:36:24;;;;;;;16.95;7.55;;;13.40;99.90;;;;;;5052901;28;20181;-84
2023/05/25 10:38:51;;;;;;;14.50;7.82;;;13.60;99.90;;;;;;5053280;28;20669;-85
2023/05/25 10:41:18;;;;;;;13.93;7.57;;;13.70;99.90;;;;;;5053024;28;20194;-84
2023/05/25 10:43:45;;;;;;;14.00;7.80;;;13.90;99.90;;;;;;5054164;28;20178;-83
2023/05/25 10:46:13;;;;;;;15.60;7.63;;;13.90;99.90;;;;;;5054430;28;20190;-83
2023/05/25 10:48:45;;;;;;;15.48;8.00;;;14.00;99.90;;;;;;5054340;28;20200;-84
2023/05/25 10:51:11;;;;;;;14.90;7.25;;;14.10;99.90;;;;;;5051684;28;20239;-82
2023/05/25 10:53:36;;;;;;;13.27;7.00;;;14.20;99.90;;;;;;5053963;28;20508;-83
2023/05/25 10:56:04;;;;;;;15.55;7.38;;;14.30;99.90;;;;;;5054079;28;20173;-83
2023/05/25 10:58:33;;;;;;;15.98;7.43;;;14.50;99.90;;;;;;5054161;28;20515;-83
2023/05/25 11:01:09;;;;;;;12.70;6.35;;;14.50;99.90;;;;;;5054026;28;20623;-83
2023/05/25 11:04:03;;;;;;;18.20;7.20;;;14.50;99.90;;;;;;5053920;28;20256;-83
2023/05/25 11:06:42;;;;;;;11.05;6.95;;;14.60;99.90;;;;;;5060193;28;20208;-85
2023/05/25 11:09:23;;;;;;;15.45;7.15;;;14.60;99.90;;;;;;5052619;28;20177;-82
2023/05/25 11:11:50;;;;;;;13.02;7.00;;;14.60;99.90;;;;;;5053996;28;20573;-84
2023/05/25 11:14:26;;;;;;;15.25;6.30;;;14.50;99.90;;;;;;5053758;28;20174;-85
2023/05/25 11:17:13;;;;;;;12.63;6.50;;;14.60;99.90;;;;;;5054149;28;20543;-84
2023/05/25 11:19:50;;;;;;;13.20;6.50;;;14.80;99.90;;;;;;5051531;28;20185;-84
2023/05/25 11:22:31;;;;;;;13.35;6.43;;;15.00;99.90;;;;;;5052449;28;20650;-82
2023/05/25 11:24:59;;;;;;;12.40;6.82;;;15.10;99.90;;;;;;5046016;28;20289;-83
2023/05/25 11:27:29;;;;;;;15.82;6.63;;;15.10;99.90;;;;;;5036736;28;20550;-85
2023/05/25 11:29:56;;;;;;;15.00;6.20;;;15.10;99.90;;;;;;5052730;28;20182;-83
2023/05/25 11:32:24;;;;;;;11.50;5.40;;;15.00;99.90;;;;;;5053470;28;20315;-84
2023/05/25 11:34:56;;;;;;;12.73;5.70;;;15.00;99.90;;;;;;5053534;28;20253;-84
2023/05/25 11:37:27;;;;;;;13.65;6.70;;;15.00;99.90;;;;;;5053540;28;20178;-85
2023/05/25 11:39:53;;;;;;;15.55;6.53;;;15.00;99.90;;;;;;5052069;28;20271;-85
2023/05/25 11:42:21;;;;;;;18.05;6.75;;;15.20;99.90;;;;;;5053193;28;20174;-84
2023/05/25 11:44:47;;;;;;;12.85;6.03;;;15.40;99.90;;;;;;5053581;28;20231;-86
2023/05/25 11:47:17;;;;;;;13.98;6.10;;;15.70;99.90;;;;;;5052315;28;20177;-86
2023/05/25 11:49:46;;;;;;;11.85;5.93;;;15.70;99.90;;;;;;5053158;28;20161;-83
2023/05/25 11:52:16;;;;;;;14.45;5.75;;;15.80;99.90;;;;;;5052023;28;20178;-85
2023/05/25 11:54:43;;;;;;;11.77;6.13;;;15.90;99.90;;;;;;5053540;28;20170;-84
2023/05/25 11:57:23;;;;;;;11.57;6.47;;;15.70;99.90;;;;;;5051249;28;20649;-87
2023/05/25 11:59:51;;;;;;;15.60;6.85;;;15.60;99.90;;;;;;5052418;28;20632;-86
2023/05/25 12:02:17;;;;;;;12.02;6.45;;;15.40;99.90;;;;;;5056291;28;20251;-83
2023/05/25 12:04:55;;;;;;;12.45;6.50;;;15.30;99.90;;;;;;5057173;28;20198;-86
2023/05/25 12:07:20;;;;;;;13.50;6.15;;;15.20;99.90;;;;;;5056221;28;20185;-85
2023/05/25 12:09:46;;;;;;;13.20;6.00;;;15.10;99.90;;;;;;5057429;28;20177;-85
2023/05/25 12:12:12;;;;;;;19.17;6.80;;;15.00;99.90;;;;;;5056251;28;20552;-84
2023/05/25 12:14:49;;;;;;;12.05;5.15;;;14.90;99.90;;;;;;5055786;28;20174;-86
2023/05/25 12:17:16;;;;;;;14.25;5.82;;;15.00;99.90;;;;;;5057072;28;20201;-83
2023/05/25 12:19:43;;;;;;;12.15;5.38;;;15.20;99.90;;;;;;5056039;28;20170;-85
2023/05/25 12:22:10;;;;;;;10.45;5.70;;;15.50;99.90;;;;;;5051116;28;20186;-84
2023/05/25 12:24:36;;;;;;;11.40;5.75;;;15.50;99.90;;;;;;5035746;28;20211;-83
2023/05/25 12:27:04;;;;;;;13.10;5.68;;;15.50;99.90;;;;;;5036683;28;20167;-86
2023/05/25 12:29:30;;;;;;;11.40;5.90;;;15.50;99.90;;;;;;5036801;28;20213;-85
2023/05/25 12:32:04;;;;;;;14.38;5.55;;;15.60;99.90;;;;;;5037201;28;20171;-85
2023/05/25 12:34:30;;;;;;;11.10;5.05;;;15.60;99.90;;;;;;5036989;28;20170;-85
2023/05/25 12:36:57;;;;;;;9.70;5.35;;;15.80;99.90;;;;;;5035727;28;20236;-84
2023/05/25 12:39:28;;;;;;;10.85;5.70;;;16.10;99.90;;;;;;5035199;28;20218;-84
2023/05/25 12:41:55;;;;;;;12.77;5.40;;;16.40;99.90;;;;;;5036564;28;20179;-84